Time,TemperatureF,DewpointF,PressureIn,WindDirection,WindDirectionDegrees,WindSpeedMPH,WindSpeedGustMPH,Humidity,HourlyPrecipIn,Conditions,Clouds,dailyrainin,SoftwareType,DateUTC
2013-11-12 00:02:00,32.0,16.0,-100.00,NNE,33,26.0,34.0,52,0.00,,,-99.99,,2013-11-12 09:02:00,
2013-11-12 00:12:00,32.0,16.0,-100.00,NNE,33,26.0,34.0,52,0.00,,,-99.99,,2013-11-12 09:12:00,
2013-11-12 00:21:00,32.0,16.0,-100.00,NNE,33,26.0,34.0,52,0.00,,,-99.99,,2013-11-12 09:21:00,
2013-11-12 00:30:00,31.0,17.0,-100.00,NNE,22,19.0,26.0,57,0.00,,,-99.99,,2013-11-12 09:30:00,
2013-11-12 00:53:00,31.0,17.0,-100.00,NNE,22,19.0,26.0,57,0.00,,,-99.99,,2013-11-12 09:53:00,
2013-11-12 01:03:00,31.0,17.0,-100.00,NNE,22,19.0,26.0,57,0.00,,,-99.99,,2013-11-12 10:03:00,
2013-11-12 01:12:00,31.0,17.0,-100.00,NNE,22,19.0,26.0,57,0.00,,,-99.99,,2013-11-12 10:12:00,
2013-11-12 01:23:00,31.0,17.0,-100.00,NNE,22,19.0,26.0,57,0.00,,,-99.99,,2013-11-12 10:23:00,
2013-11-12 01:30:00,30.0,18.0,-100.00,NNE,29,14.0,23.0,62,0.00,,,-99.99,,2013-11-12 10:30:00,
2013-11-12 01:53:00,30.0,18.0,-100.00,NNE,29,14.0,23.0,62,0.00,,,-99.99,,2013-11-12 10:53:00,
2013-11-12 02:02:00,30.0,18.0,-100.00,NNE,29,14.0,23.0,62,0.00,,,-99.99,,2013-11-12 11:02:00,
2013-11-12 02:12:00,30.0,18.0,-100.00,NNE,29,14.0,23.0,62,0.00,,,-99.99,,2013-11-12 11:12:00,
2013-11-12 02:22:00,30.0,18.0,-100.00,NNE,29,14.0,23.0,62,0.00,,,-99.99,,2013-11-12 11:22:00,
2013-11-12 02:30:00,29.0,19.0,-100.00,NE,48,14.0,21.0,65,0.00,,,-99.99,,2013-11-12 11:30:00,
2013-11-12 02:52:00,29.0,-99.9,-100.00,NE,48,14.0,21.0,65,0.00,,,-99.99,,2013-11-12 11:52:00,
2013-11-12 03:02:00,29.0,-99.9,-100.00,NE,48,14.0,21.0,65,0.00,,,-99.99,,2013-11-12 12:02:00,
2013-11-12 03:11:00,29.0,-99.9,-100.00,NE,48,14.0,21.0,65,0.00,,,-99.99,,2013-11-12 12:11:00,
2013-11-12 03:21:00,29.0,19.0,-100.00,NE,48,14.0,21.0,65,0.00,,,-99.99,,2013-11-12 12:21:00,
2013-11-12 03:30:00,28.0,17.0,-100.00,NNE,20,12.0,18.0,61,0.00,,,-99.99,,2013-11-12 12:30:00,
2013-11-12 03:52:00,28.0,17.0,-100.00,NNE,20,12.0,18.0,61,0.00,,,-99.99,,2013-11-12 12:52:00,
2013-11-12 04:01:00,28.0,17.0,-100.00,NNE,20,12.0,18.0,61,0.00,,,-99.99,,2013-11-12 13:01:00,
2013-11-12 04:11:00,28.0,17.0,-100.00,NNE,20,12.0,18.0,61,0.00,,,-99.99,,2013-11-12 13:11:00,
2013-11-12 04:22:00,28.0,17.0,-100.00,NNE,20,12.0,18.0,61,0.00,,,-99.99,,2013-11-12 13:22:00,
2013-11-12 04:30:00,28.0,16.0,-100.00,NE,48,15.0,20.0,59,0.00,,,-99.99,,2013-11-12 13:30:00,
2013-11-12 04:52:00,28.0,16.0,-100.00,NE,48,15.0,20.0,59,0.00,,,-99.99,,2013-11-12 13:52:00,
2013-11-12 05:02:00,28.0,16.0,-100.00,NE,48,15.0,20.0,59,0.00,,,-99.99,,2013-11-12 14:02:00,
2013-11-12 05:11:00,28.0,16.0,-100.00,NE,48,15.0,20.0,59,0.00,,,-99.99,,2013-11-12 14:11:00,
2013-11-12 05:21:00,28.0,16.0,-100.00,NE,48,15.0,20.0,59,0.00,,,-99.99,,2013-11-12 14:21:00,
2013-11-12 05:30:00,29.0,17.0,-100.00,NE,44,18.0,25.0,62,0.00,,,-99.99,,2013-11-12 14:30:00,
2013-11-12 05:52:00,29.0,17.0,-100.00,NE,44,18.0,25.0,62,0.00,,,-99.99,,2013-11-12 14:52:00,
2013-11-12 06:02:00,29.0,17.0,-100.00,NE,44,18.0,25.0,62,0.00,,,-99.99,,2013-11-12 15:02:00,
2013-11-12 06:11:00,29.0,17.0,-100.00,NE,44,18.0,25.0,62,0.00,,,-99.99,,2013-11-12 15:11:00,
2013-11-12 06:21:00,29.0,17.0,-100.00,NE,44,18.0,25.0,62,0.00,,,-99.99,,2013-11-12 15:21:00,
2013-11-12 06:30:00,28.0,16.0,-100.00,NE,47,19.0,23.0,59,0.00,,,-99.99,,2013-11-12 15:30:00,
2013-11-12 06:53:00,28.0,16.0,-100.00,NE,47,19.0,23.0,59,0.00,,,-99.99,,2013-11-12 15:53:00,
2013-11-12 07:03:00,28.0,16.0,-100.00,NE,47,19.0,23.0,59,0.00,,,-99.99,,2013-11-12 16:03:00,
2013-11-12 07:12:00,28.0,16.0,-100.00,NE,47,19.0,23.0,59,0.00,,,-99.99,,2013-11-12 16:12:00,
2013-11-12 07:23:00,28.0,16.0,-100.00,NE,47,19.0,23.0,59,0.00,,,-99.99,,2013-11-12 16:23:00,
2013-11-12 07:30:00,29.0,15.0,-100.00,ENE,62,15.0,19.0,56,0.00,,,-99.99,,2013-11-12 16:30:00,
2013-11-12 07:53:00,29.0,15.0,-100.00,ENE,62,15.0,19.0,56,0.00,,,-99.99,,2013-11-12 16:53:00,
2013-11-12 08:02:00,29.0,15.0,-100.00,ENE,62,15.0,19.0,56,0.00,,,-99.99,,2013-11-12 17:02:00,
2013-11-12 08:12:00,29.0,15.0,-100.00,ENE,62,15.0,19.0,56,0.00,,,-99.99,,2013-11-12 17:12:00,
2013-11-12 08:22:00,29.0,15.0,-100.00,ENE,62,15.0,19.0,56,0.00,,,-99.99,,2013-11-12 17:22:00,
2013-11-12 08:30:00,28.0,15.0,-100.00,North,11,10.0,15.0,58,0.00,,,-99.99,,2013-11-12 17:30:00,
2013-11-12 08:52:00,28.0,15.0,-100.00,North,11,10.0,15.0,58,0.00,,,-99.99,,2013-11-12 17:52:00,
2013-11-12 09:01:00,28.0,15.0,-100.00,North,11,10.0,15.0,58,0.00,,,-99.99,,2013-11-12 18:01:00,
2013-11-12 09:12:00,28.0,15.0,-100.00,North,11,10.0,15.0,58,0.00,,,-99.99,,2013-11-12 18:12:00,
2013-11-12 09:22:00,28.0,15.0,-100.00,North,11,10.0,15.0,58,0.00,,,-99.99,,2013-11-12 18:22:00,
2013-11-12 09:30:00,28.0,15.0,-100.00,NNE,21,10.0,16.0,58,0.00,,,-99.99,,2013-11-12 18:30:00,
2013-11-12 09:52:00,28.0,15.0,-100.00,NNE,21,10.0,16.0,58,0.00,,,-99.99,,2013-11-12 18:52:00,
2013-11-12 10:01:00,28.0,15.0,-100.00,NNE,21,10.0,16.0,58,0.00,,,-99.99,,2013-11-12 19:01:00,
2013-11-12 10:11:00,28.0,15.0,-100.00,NNE,21,10.0,16.0,58,0.00,,,-99.99,,2013-11-12 19:11:00,
2013-11-12 10:21:00,28.0,15.0,-100.00,NNE,21,10.0,16.0,58,0.00,,,-99.99,,2013-11-12 19:21:00,
2013-11-12 10:30:00,29.0,17.0,-100.00,NE,42,15.0,20.0,60,0.00,,,-99.99,,2013-11-12 19:30:00,
2013-11-12 10:52:00,29.0,17.0,-100.00,NE,42,15.0,20.0,60,0.00,,,-99.99,,2013-11-12 19:52:00,
2013-11-12 11:01:00,29.0,17.0,-100.00,NE,42,15.0,20.0,60,0.00,,,-99.99,,2013-11-12 20:01:00,
2013-11-12 11:11:00,29.0,17.0,-100.00,NE,42,15.0,20.0,60,0.00,,,-99.99,,2013-11-12 20:11:00,
2013-11-12 11:21:00,29.0,17.0,-100.00,NE,42,15.0,20.0,60,0.00,,,-99.99,,2013-11-12 20:21:00,
2013-11-12 11:30:00,29.0,17.0,-100.00,NNE,32,17.0,21.0,58,0.00,,,-99.99,,2013-11-12 20:30:00,
2013-11-12 11:52:00,29.0,17.0,-100.00,NNE,32,17.0,21.0,58,0.00,,,-99.99,,2013-11-12 20:52:00,
2013-11-12 12:02:00,29.0,17.0,-100.00,NNE,32,17.0,21.0,58,0.00,,,-99.99,,2013-11-12 21:02:00,
2013-11-12 12:12:00,29.0,17.0,-100.00,NNE,32,17.0,21.0,58,0.00,,,-99.99,,2013-11-12 21:12:00,
2013-11-12 12:22:00,29.0,17.0,-100.00,NNE,32,17.0,21.0,58,0.00,,,-99.99,,2013-11-12 21:22:00,
2013-11-12 12:30:00,30.0,16.0,-100.00,NNE,32,12.0,15.0,56,0.00,,,-99.99,,2013-11-12 21:30:00,
2013-11-12 12:54:00,30.0,16.0,-100.00,NNE,32,12.0,15.0,56,0.00,,,-99.99,,2013-11-12 21:54:00,
2013-11-12 13:04:00,30.0,16.0,-100.00,NNE,32,12.0,15.0,56,0.00,,,-99.99,,2013-11-12 22:04:00,
2013-11-12 13:14:00,30.0,16.0,-100.00,NNE,32,12.0,15.0,56,0.00,,,-99.99,,2013-11-12 22:14:00,
2013-11-12 13:24:00,30.0,16.0,-100.00,NNE,32,12.0,15.0,56,0.00,,,-99.99,,2013-11-12 22:24:00,
2013-11-12 13:30:00,31.0,17.0,-100.00,NE,42,11.0,14.0,56,0.00,,,-99.99,,2013-11-12 22:30:00,
2013-11-12 13:54:00,31.0,17.0,-100.00,NE,42,11.0,14.0,56,0.00,,,-99.99,,2013-11-12 22:54:00,
2013-11-12 14:03:00,31.0,17.0,-100.00,NE,42,11.0,14.0,56,0.00,,,-99.99,,2013-11-12 23:03:00,
2013-11-12 14:12:00,31.0,17.0,-100.00,NE,42,11.0,14.0,56,0.00,,,-99.99,,2013-11-12 23:12:00,
2013-11-12 14:23:00,31.0,17.0,-100.00,NE,42,11.0,14.0,56,0.00,,,-99.99,,2013-11-12 23:23:00,
2013-11-12 14:30:00,31.0,17.0,-100.00,NE,45,12.0,15.0,54,0.00,,,-99.99,,2013-11-12 23:30:00,
2013-11-12 14:54:00,31.0,17.0,-100.00,NE,45,12.0,15.0,54,0.00,,,-99.99,,2013-11-12 23:54:00,
2013-11-12 15:02:00,31.0,17.0,-100.00,NE,45,12.0,15.0,54,0.00,,,-99.99,,2013-11-13 00:02:00,
2013-11-12 15:11:00,31.0,17.0,-100.00,NE,45,12.0,15.0,54,0.00,,,-99.99,,2013-11-13 00:11:00,
2013-11-12 15:22:00,31.0,17.0,-100.00,NE,45,12.0,15.0,54,0.00,,,-99.99,,2013-11-13 00:22:00,
2013-11-12 15:30:00,31.0,17.0,-100.00,NE,41,14.0,17.0,55,0.00,,,-99.99,,2013-11-13 00:30:00,
2013-11-12 15:52:00,31.0,17.0,-100.00,NE,41,14.0,17.0,55,0.00,,,-99.99,,2013-11-13 00:52:00,
2013-11-12 16:01:00,31.0,17.0,-100.00,NE,41,14.0,17.0,55,0.00,,,-99.99,,2013-11-13 01:01:00,
2013-11-12 16:11:00,31.0,17.0,-100.00,NE,41,14.0,17.0,55,0.00,,,-99.99,,2013-11-13 01:11:00,
2013-11-12 16:22:00,31.0,17.0,-100.00,NE,41,14.0,17.0,55,0.00,,,-99.99,,2013-11-13 01:22:00,
2013-11-12 16:30:00,31.0,18.0,-100.00,NE,36,14.0,17.0,58,0.00,,,-99.99,,2013-11-13 01:30:00,
2013-11-12 16:52:00,31.0,18.0,-100.00,NE,36,14.0,17.0,58,0.00,,,-99.99,,2013-11-13 01:52:00,
2013-11-12 17:01:00,31.0,18.0,-100.00,NE,36,14.0,17.0,58,0.00,,,-99.99,,2013-11-13 02:01:00,
2013-11-12 17:11:00,31.0,18.0,-100.00,NE,36,14.0,17.0,58,0.00,,,-99.99,,2013-11-13 02:11:00,
2013-11-12 17:22:00,31.0,18.0,-100.00,NE,36,14.0,17.0,58,0.00,,,-99.99,,2013-11-13 02:22:00,
2013-11-12 17:30:00,31.0,17.0,-100.00,NE,41,11.0,14.0,56,0.00,,,-99.99,,2013-11-13 02:30:00,
2013-11-12 17:52:00,31.0,17.0,-100.00,NE,41,11.0,14.0,56,0.00,,,-99.99,,2013-11-13 02:52:00,
2013-11-12 18:02:00,31.0,17.0,-100.00,NE,41,11.0,14.0,56,0.00,,,-99.99,,2013-11-13 03:02:00,
2013-11-12 18:11:00,31.0,17.0,-100.00,NE,41,11.0,14.0,56,0.00,,,-99.99,,2013-11-13 03:11:00,
2013-11-12 18:22:00,31.0,17.0,-100.00,NE,41,11.0,14.0,56,0.00,,,-99.99,,2013-11-13 03:22:00,
2013-11-12 18:30:00,31.0,18.0,-100.00,NNE,32,11.0,14.0,59,0.00,,,-99.99,,2013-11-13 03:30:00,
2013-11-12 18:54:00,31.0,18.0,-100.00,NNE,32,11.0,14.0,59,0.00,,,-99.99,,2013-11-13 03:54:00,
2013-11-12 19:04:00,31.0,18.0,-100.00,NNE,32,11.0,14.0,59,0.00,,,-99.99,,2013-11-13 04:04:00,
2013-11-12 19:14:00,31.0,18.0,-100.00,NNE,32,11.0,14.0,59,0.00,,,-99.99,,2013-11-13 04:14:00,
2013-11-12 19:23:00,31.0,18.0,-100.00,NNE,32,11.0,14.0,59,0.00,,,-99.99,,2013-11-13 04:23:00,
2013-11-12 19:30:00,30.0,17.0,-100.00,NNE,31,13.0,16.0,57,0.00,,,-99.99,,2013-11-13 04:30:00,
2013-11-12 19:53:00,30.0,17.0,-100.00,NNE,31,13.0,16.0,57,0.00,,,-99.99,,2013-11-13 04:53:00,
2013-11-12 20:03:00,30.0,17.0,-100.00,NNE,31,13.0,16.0,57,0.00,,,-99.99,,2013-11-13 05:03:00,
2013-11-12 20:13:00,30.0,17.0,-100.00,NNE,31,13.0,16.0,57,0.00,,,-99.99,,2013-11-13 05:13:00,
2013-11-12 20:23:00,30.0,17.0,-100.00,NNE,31,13.0,16.0,57,0.00,,,-99.99,,2013-11-13 05:23:00,
2013-11-12 20:30:00,31.0,16.0,-100.00,NE,56,13.0,15.0,53,0.00,,,-99.99,,2013-11-13 05:30:00,
2013-11-12 20:53:00,31.0,16.0,-100.00,NE,56,13.0,15.0,53,0.00,,,-99.99,,2013-11-13 05:53:00,
2013-11-12 21:03:00,31.0,16.0,-100.00,NE,56,13.0,15.0,53,0.00,,,-99.99,,2013-11-13 06:03:00,
2013-11-12 21:13:00,31.0,16.0,-100.00,NE,56,13.0,15.0,53,0.00,,,-99.99,,2013-11-13 06:13:00,
2013-11-12 21:22:00,31.0,16.0,-100.00,NE,56,13.0,15.0,53,0.00,,,-99.99,,2013-11-13 06:22:00,
2013-11-12 21:30:00,31.0,20.0,-100.00,ENE,63,15.0,23.0,62,0.00,,,-99.99,,2013-11-13 06:30:00,
2013-11-12 21:52:00,31.0,20.0,-100.00,ENE,63,15.0,23.0,62,0.00,,,-99.99,,2013-11-13 06:52:00,
2013-11-12 22:02:00,31.0,20.0,-100.00,ENE,63,15.0,23.0,62,0.00,,,-99.99,,2013-11-13 07:02:00,
2013-11-12 22:11:00,31.0,20.0,-100.00,ENE,63,15.0,23.0,62,0.00,,,-99.99,,2013-11-13 07:11:00,
2013-11-12 22:21:00,31.0,20.0,-100.00,ENE,63,15.0,23.0,62,0.00,,,-99.99,,2013-11-13 07:21:00,
2013-11-12 22:30:00,31.0,18.0,-100.00,NNE,32,12.0,15.0,58,0.00,,,-99.99,,2013-11-13 07:30:00,
2013-11-12 22:52:00,31.0,18.0,-100.00,NNE,32,12.0,15.0,58,0.00,,,-99.99,,2013-11-13 07:52:00,
2013-11-12 23:01:00,31.0,18.0,-100.00,NNE,32,12.0,15.0,58,0.00,,,-99.99,,2013-11-13 08:01:00,
2013-11-12 23:12:00,31.0,18.0,-100.00,NNE,32,12.0,15.0,58,0.00,,,-99.99,,2013-11-13 08:12:00,
2013-11-12 23:22:00,31.0,18.0,-100.00,NNE,32,12.0,15.0,58,0.00,,,-99.99,,2013-11-13 08:22:00,
2013-11-12 23:30:00,31.0,18.0,-100.00,NE,54,11.0,15.0,60,0.00,,,-99.99,,2013-11-13 08:30:00,
2013-11-12 23:52:00,31.0,18.0,-100.00,NE,54,11.0,15.0,60,0.00,,,-99.99,,2013-11-13 08:52:00,